createdAt,value
2022-12-22T00:00:40.093Z,1.38
2022-12-22T00:03:31.745Z,1.73
2022-12-22T00:06:17.245Z,1.70
2022-12-22T00:09:05.727Z,1.95
2022-12-22T00:11:52.111Z,1.38
2022-12-22T00:14:38.664Z,1.70
2022-12-22T00:17:32.422Z,1.45
2022-12-22T00:20:18.820Z,1.33
2022-12-22T00:23:04.453Z,1.33
2022-12-22T00:25:49.563Z,1.30
2022-12-22T00:28:35.464Z,1.85
2022-12-22T00:31:22.622Z,1.50
2022-12-22T00:34:07.864Z,1.15
2022-12-22T00:36:53.735Z,1.20
2022-12-22T00:39:38.807Z,1.40
2022-12-22T00:42:24.441Z,1.20
2022-12-22T00:45:10.391Z,1.60
2022-12-22T00:47:57.475Z,1.30
2022-12-22T00:50:49.798Z,1.65
2022-12-22T00:53:36.242Z,1.30
2022-12-22T00:56:22.508Z,1.45
2022-12-22T00:59:09.341Z,1.15
2022-12-22T01:01:54.706Z,1.30
2022-12-22T01:04:41.825Z,1.42
2022-12-22T01:07:29.585Z,1.67
2022-12-22T01:10:15.299Z,1.10
2022-12-22T01:13:01.534Z,1.52
2022-12-22T01:15:48.255Z,1.20
2022-12-22T01:18:34.083Z,1.60
2022-12-22T01:21:22.529Z,0.90
2022-12-22T01:24:07.819Z,1.05
2022-12-22T01:26:53.088Z,1.67
2022-12-22T01:29:38.453Z,1.02
2022-12-22T01:32:24.285Z,1.23
2022-12-22T01:35:09.519Z,1.30
2022-12-22T01:37:56.291Z,1.10
2022-12-22T01:40:43.712Z,0.90
2022-12-22T01:43:39.227Z,1.00
2022-12-22T01:46:39.297Z,1.13
2022-12-22T01:49:27.376Z,1.20
2022-12-22T01:52:13.125Z,0.98
2022-12-22T01:55:01.009Z,1.00
2022-12-22T01:57:47.318Z,0.73
2022-12-22T02:00:33.231Z,0.90
2022-12-22T02:03:19.501Z,1.15
2022-12-22T02:06:17.522Z,1.00
2022-12-22T02:09:16.707Z,1.08
2022-12-22T02:12:12.254Z,0.98
2022-12-22T02:15:04.563Z,0.70
2022-12-22T02:17:57.498Z,1.10
2022-12-22T02:20:55.305Z,1.15
2022-12-22T02:23:59.946Z,0.95
2022-12-22T02:26:48.926Z,0.75
2022-12-22T02:29:38.216Z,0.85
2022-12-22T02:32:24.781Z,0.77
2022-12-22T02:35:10.067Z,0.90
2022-12-22T02:38:08.406Z,0.70
2022-12-22T02:41:04.274Z,0.68
2022-12-22T02:44:07.658Z,0.90
2022-12-22T02:46:59.442Z,0.90
2022-12-22T02:49:50.514Z,1.10
2022-12-22T02:52:42.790Z,0.60
2022-12-22T02:55:29.237Z,0.60
2022-12-22T02:58:18.073Z,0.95
2022-12-22T03:01:06.326Z,0.70
2022-12-22T03:03:52.131Z,0.80
2022-12-22T03:06:37.756Z,0.85
2022-12-22T03:09:22.928Z,0.80
2022-12-22T03:12:08.861Z,1.25
2022-12-22T03:14:54.021Z,0.90
2022-12-22T03:17:40.809Z,0.65
2022-12-22T03:20:27.703Z,1.08
2022-12-22T03:23:12.952Z,0.80
2022-12-22T03:25:53.978Z,1.02
2022-12-22T03:28:23.532Z,0.73
2022-12-22T03:30:57.058Z,0.80
2022-12-22T03:33:26.771Z,0.60
2022-12-22T03:35:54.727Z,0.70
2022-12-22T03:38:22.776Z,1.13
2022-12-22T03:40:50.811Z,0.80
2022-12-22T03:43:37.030Z,0.70
2022-12-22T03:46:22.963Z,0.85
2022-12-22T03:49:06.533Z,0.40
2022-12-22T03:51:35.012Z,1.27
2022-12-22T03:54:03.033Z,0.63
2022-12-22T03:56:31.197Z,0.85
2022-12-22T03:58:59.148Z,0.95
2022-12-22T04:01:27.399Z,0.60
2022-12-22T04:03:56.865Z,1.02
2022-12-22T04:06:25.001Z,0.70
2022-12-22T04:08:52.999Z,0.88
2022-12-22T04:11:38.521Z,0.88
2022-12-22T04:14:06.630Z,0.60
2022-12-22T04:16:34.748Z,0.70
2022-12-22T04:19:04.310Z,0.60
2022-12-22T04:21:32.307Z,0.80
2022-12-22T04:24:00.285Z,0.90
2022-12-22T04:26:28.769Z,0.63
2022-12-22T04:28:57.023Z,0.90
2022-12-22T04:31:25.386Z,0.70
2022-12-22T04:33:53.406Z,0.63
2022-12-22T04:38:50.957Z,0.65
2022-12-22T04:41:18.907Z,0.68
2022-12-22T04:43:46.796Z,0.60
2022-12-22T04:46:14.915Z,0.70
2022-12-22T04:48:42.945Z,0.60
2022-12-22T04:51:11.013Z,0.68
2022-12-22T04:53:40.378Z,0.80
2022-12-22T04:56:09.505Z,0.77
2022-12-22T04:58:38.023Z,0.75
2022-12-22T05:01:13.898Z,0.90
2022-12-22T05:03:42.265Z,0.60
2022-12-22T05:06:11.005Z,0.70
2022-12-22T05:08:40.484Z,0.52
2022-12-22T05:11:08.855Z,0.90
2022-12-22T05:13:36.908Z,0.80
2022-12-22T05:16:06.721Z,0.85
2022-12-22T05:18:35.185Z,0.57
2022-12-22T05:21:04.795Z,0.60
2022-12-22T05:23:32.823Z,0.60
2022-12-22T05:26:02.340Z,0.75
2022-12-22T05:28:32.160Z,0.85
2022-12-22T05:31:06.050Z,0.57
2022-12-22T05:33:34.171Z,0.88
2022-12-22T05:36:03.480Z,0.68
2022-12-22T05:38:31.543Z,0.60
2022-12-22T05:41:03.961Z,0.60
2022-12-22T05:43:33.957Z,0.80
2022-12-22T05:46:03.713Z,0.40
2022-12-22T05:48:37.423Z,0.60
2022-12-22T05:51:06.929Z,0.55
2022-12-22T05:53:34.889Z,0.40
2022-12-22T05:56:02.984Z,0.45
2022-12-22T05:58:30.977Z,0.70
2022-12-22T06:01:01.811Z,0.60
2022-12-22T06:03:30.766Z,0.80
2022-12-22T06:05:59.759Z,0.93
2022-12-22T06:08:28.378Z,0.85
2022-12-22T06:10:57.610Z,0.70
2022-12-22T06:13:26.800Z,0.80
2022-12-22T06:15:54.943Z,0.73
2022-12-22T06:18:24.337Z,0.60
2022-12-22T06:20:53.524Z,0.50
2022-12-22T06:23:21.662Z,0.65
2022-12-22T06:25:55.855Z,0.50
2022-12-22T06:28:24.447Z,0.45
2022-12-22T06:30:52.686Z,0.77
2022-12-22T06:33:20.772Z,0.73
2022-12-22T06:35:57.639Z,0.70
2022-12-22T06:38:27.472Z,0.70
2022-12-22T06:40:55.476Z,1.05
2022-12-22T06:43:22.425Z,0.60
2022-12-22T06:45:50.482Z,0.40
2022-12-22T06:48:18.467Z,0.80
2022-12-22T06:50:46.544Z,0.50
2022-12-22T06:53:15.953Z,0.40
2022-12-22T06:55:44.069Z,0.40
2022-12-22T06:58:12.042Z,0.60
2022-12-22T07:00:40.070Z,0.60
2022-12-22T07:03:08.270Z,0.77
2022-12-22T07:05:36.455Z,0.75
2022-12-22T07:08:08.933Z,0.68
2022-12-22T07:10:56.310Z,0.50
2022-12-22T07:13:25.326Z,0.57
2022-12-22T07:15:59.921Z,0.40
2022-12-22T07:18:29.540Z,0.55
2022-12-22T07:20:57.502Z,0.90
2022-12-22T07:23:25.698Z,0.90
2022-12-22T07:25:55.324Z,0.98
2022-12-22T07:28:23.546Z,0.70
2022-12-22T07:30:52.074Z,0.52
2022-12-22T07:33:20.432Z,1.00
2022-12-22T07:35:48.432Z,0.52
2022-12-22T07:38:16.498Z,0.50
2022-12-22T07:40:49.359Z,0.50
2022-12-22T07:43:20.342Z,0.50
2022-12-22T07:45:48.545Z,0.55
2022-12-22T07:48:33.796Z,0.50
2022-12-22T07:51:05.290Z,0.52
2022-12-22T07:53:33.873Z,0.60
2022-12-22T07:56:04.672Z,0.65
2022-12-22T07:58:34.546Z,1.00
2022-12-22T08:01:02.825Z,2.38
2022-12-22T08:03:30.818Z,1.30
2022-12-22T08:05:58.758Z,1.33
2022-12-22T08:08:26.639Z,1.30
2022-12-22T08:10:54.637Z,1.58
2022-12-22T08:13:22.735Z,1.48
2022-12-22T08:15:52.184Z,1.55
2022-12-22T08:18:20.907Z,0.98
2022-12-22T08:20:50.883Z,0.93
2022-12-22T08:23:20.235Z,0.82
2022-12-22T08:25:51.997Z,1.15
2022-12-22T08:28:20.328Z,0.88
2022-12-22T08:30:48.716Z,0.85
2022-12-22T08:33:18.186Z,1.27
2022-12-22T08:35:46.181Z,0.75
2022-12-22T08:38:15.899Z,1.58
2022-12-22T08:40:45.945Z,0.50
2022-12-22T08:43:13.954Z,0.80
2022-12-22T08:45:43.587Z,0.70
2022-12-22T08:48:11.894Z,0.65
2022-12-22T08:50:41.277Z,1.00
2022-12-22T08:53:23.672Z,1.55
2022-12-22T08:55:58.619Z,1.00
2022-12-22T08:58:26.614Z,1.20
2022-12-22T09:00:54.735Z,1.05
2022-12-22T09:03:22.815Z,1.35
2022-12-22T09:05:52.197Z,1.10
2022-12-22T09:08:20.192Z,0.77
2022-12-22T09:10:48.133Z,1.20
2022-12-22T09:13:16.164Z,1.27
2022-12-22T09:15:44.138Z,1.10
2022-12-22T09:18:12.059Z,1.10
2022-12-22T09:20:39.977Z,0.90
2022-12-22T09:23:09.562Z,1.13
2022-12-22T09:25:37.586Z,1.17
2022-12-22T09:28:08.467Z,1.23
2022-12-22T09:30:36.514Z,0.68
2022-12-22T09:33:04.477Z,0.77
2022-12-22T09:35:32.449Z,0.88
2022-12-22T09:38:00.472Z,1.02
2022-12-22T09:40:29.738Z,1.13
2022-12-22T09:42:59.095Z,1.95
2022-12-22T09:45:27.440Z,1.13
2022-12-22T09:47:56.298Z,0.93
2022-12-22T09:50:26.964Z,0.73
2022-12-22T09:52:58.586Z,0.77
2022-12-22T09:55:41.054Z,0.90
2022-12-22T09:58:22.193Z,1.13
2022-12-22T10:01:00.637Z,0.70
2022-12-22T10:03:35.227Z,0.88
2022-12-22T10:06:10.948Z,0.77
2022-12-22T10:08:41.213Z,0.80
2022-12-22T10:11:15.255Z,0.85
2022-12-22T10:13:43.595Z,0.90
2022-12-22T10:16:23.626Z,1.02
2022-12-22T10:19:00.606Z,0.80
2022-12-22T10:21:30.260Z,0.95
2022-12-22T10:23:58.253Z,1.00
2022-12-22T10:26:31.997Z,0.70
2022-12-22T10:29:03.700Z,1.05
2022-12-22T10:31:34.152Z,1.20
2022-12-22T10:34:12.752Z,1.13
2022-12-22T10:36:42.292Z,1.10
2022-12-22T10:39:12.136Z,0.80
2022-12-22T10:41:45.805Z,1.08
2022-12-22T10:44:23.726Z,1.08
2022-12-22T10:46:53.411Z,0.98
2022-12-22T10:49:23.820Z,1.10
2022-12-22T10:51:54.926Z,1.17
2022-12-22T10:54:31.089Z,1.27
2022-12-22T10:57:30.873Z,1.02
2022-12-22T11:00:00.323Z,1.00
2022-12-22T11:02:33.178Z,1.02
2022-12-22T11:05:07.050Z,0.85
2022-12-22T11:07:37.535Z,0.80
2022-12-22T11:10:18.693Z,1.08
2022-12-22T11:13:07.613Z,1.10
2022-12-22T11:15:44.855Z,1.17
2022-12-22T11:18:31.502Z,0.88
2022-12-22T11:21:04.579Z,0.70
2022-12-22T11:23:38.804Z,0.70
2022-12-22T11:26:16.663Z,0.90
2022-12-22T11:28:58.894Z,0.95
2022-12-22T11:31:42.715Z,0.80
2022-12-22T11:34:24.238Z,1.02
2022-12-22T11:37:03.452Z,0.70
2022-12-22T11:39:41.627Z,0.80
2022-12-22T11:42:27.856Z,0.40
2022-12-22T11:45:10.843Z,0.80
2022-12-22T11:47:48.747Z,0.77
2022-12-22T11:50:59.856Z,0.95
2022-12-22T11:53:52.323Z,0.63
2022-12-22T11:56:24.503Z,0.65
2022-12-22T11:59:10.277Z,0.60
2022-12-22T12:01:55.595Z,1.10
2022-12-22T12:05:02.487Z,1.02
2022-12-22T12:07:33.349Z,1.10
2022-12-22T12:10:15.064Z,0.90
2022-12-22T12:12:53.980Z,1.38
2022-12-22T12:15:32.473Z,1.00
2022-12-22T12:18:35.385Z,0.93
2022-12-22T12:21:21.309Z,0.85
2022-12-22T12:24:06.479Z,1.05
2022-12-22T12:26:45.373Z,1.02
2022-12-22T12:29:18.171Z,1.05
2022-12-22T12:31:49.971Z,0.98
2022-12-22T12:34:21.396Z,0.93
2022-12-22T12:36:54.067Z,0.70
2022-12-22T12:39:29.757Z,0.95
2022-12-22T12:42:06.104Z,0.80
2022-12-22T12:44:37.037Z,0.77
2022-12-22T12:47:23.267Z,0.98
2022-12-22T12:49:58.256Z,0.70
2022-12-22T12:53:05.961Z,0.90
2022-12-22T12:55:35.986Z,0.88
2022-12-22T12:58:06.079Z,0.98
2022-12-22T13:00:52.588Z,0.77
2022-12-22T13:06:53.412Z,0.77
2022-12-22T13:09:49.065Z,0.70
2022-12-22T13:12:35.798Z,1.00
2022-12-22T13:15:03.790Z,0.75
2022-12-22T13:17:40.799Z,0.80
2022-12-22T13:20:15.593Z,0.68
2022-12-22T13:22:45.691Z,0.80
2022-12-22T13:25:17.198Z,0.98
2022-12-22T13:27:45.334Z,0.85
2022-12-22T13:30:16.637Z,1.02
2022-12-22T13:32:48.311Z,0.73
2022-12-22T13:35:44.635Z,1.08
2022-12-22T13:38:27.631Z,1.05
2022-12-22T13:40:55.992Z,1.00
2022-12-22T13:43:24.130Z,1.23
2022-12-22T13:45:54.266Z,1.15
2022-12-22T13:48:25.532Z,1.13
2022-12-22T13:50:55.254Z,1.30
2022-12-22T13:56:24.921Z,1.00
2022-12-22T13:58:56.658Z,1.40
2022-12-22T14:01:25.108Z,1.15
2022-12-22T14:04:00.818Z,1.05
2022-12-22T14:06:31.937Z,1.10
2022-12-22T14:09:16.263Z,1.00
2022-12-22T14:11:51.510Z,0.90
2022-12-22T14:14:23.895Z,1.30
2022-12-22T14:16:54.643Z,1.00
2022-12-22T14:19:24.931Z,1.50
2022-12-22T14:22:03.318Z,1.50
2022-12-22T14:24:42.079Z,1.42
2022-12-22T14:27:19.629Z,1.13
2022-12-22T14:29:47.859Z,6.22
2022-12-22T14:32:35.626Z,22.20
2022-12-22T14:35:03.993Z,27.70
2022-12-22T14:37:33.105Z,29.42
2022-12-22T14:40:02.857Z,36.38
2022-12-22T14:42:32.334Z,24.90
2022-12-22T14:45:00.729Z,26.23
2022-12-22T14:47:28.778Z,27.20
2022-12-22T14:49:59.628Z,37.30
2022-12-22T14:52:35.424Z,26.83
2022-12-22T14:55:07.180Z,21.15
2022-12-22T14:57:39.253Z,15.75
2022-12-22T15:00:27.674Z,11.80
2022-12-22T15:02:57.849Z,9.25
2022-12-22T15:05:29.270Z,8.10
2022-12-22T15:08:08.514Z,6.97
2022-12-22T15:10:43.273Z,5.90
2022-12-22T15:13:24.664Z,5.20
2022-12-22T15:15:53.497Z,4.75
2022-12-22T15:18:26.462Z,4.13
2022-12-22T15:20:54.643Z,4.07
2022-12-22T15:23:22.566Z,3.85
2022-12-22T15:25:52.113Z,4.38
2022-12-22T15:28:20.178Z,3.53
2022-12-22T15:30:48.143Z,4.05
2022-12-22T15:33:18.914Z,3.65
2022-12-22T15:35:47.832Z,3.00
2022-12-22T15:38:18.012Z,2.75
2022-12-22T15:40:46.221Z,3.20
2022-12-22T15:43:55.770Z,2.45
2022-12-22T15:46:06.588Z,2.42
2022-12-22T15:48:36.488Z,2.30
2022-12-22T15:51:06.767Z,2.20
2022-12-22T15:53:35.830Z,2.20
2022-12-22T15:56:04.059Z,2.50
2022-12-22T15:58:37.388Z,2.20
2022-12-22T16:01:05.474Z,1.80
2022-12-22T16:03:33.629Z,2.00
2022-12-22T16:06:01.806Z,2.00
2022-12-22T16:08:34.287Z,1.67
2022-12-22T16:11:02.310Z,1.70
2022-12-22T16:13:30.650Z,1.63
2022-12-22T16:16:00.272Z,2.05
2022-12-22T16:18:28.316Z,1.63
2022-12-22T16:20:58.931Z,1.60
2022-12-22T16:23:28.344Z,1.70
2022-12-22T16:26:01.937Z,1.27
2022-12-22T16:28:30.901Z,1.90
2022-12-22T16:31:00.984Z,1.50
2022-12-22T16:33:29.185Z,1.73
2022-12-22T16:35:57.267Z,1.42
2022-12-22T16:38:25.233Z,1.40
2022-12-22T16:40:54.602Z,1.40
2022-12-22T16:46:15.580Z,1.63
2022-12-22T16:48:46.229Z,1.30
2022-12-22T16:51:20.566Z,1.40
2022-12-22T16:53:48.679Z,1.55
2022-12-22T16:56:20.648Z,1.58
2022-12-22T16:58:48.922Z,1.33
2022-12-22T17:01:36.060Z,1.20
2022-12-22T17:04:07.306Z,1.30
2022-12-22T17:06:36.280Z,1.40
2022-12-22T17:09:05.578Z,1.20
2022-12-22T17:11:34.514Z,1.20
2022-12-22T17:14:07.029Z,1.23
2022-12-22T17:16:36.486Z,1.42
2022-12-22T17:19:04.631Z,0.90
2022-12-22T17:21:33.500Z,1.27
2022-12-22T17:24:04.230Z,1.40
2022-12-22T17:26:34.599Z,1.50
2022-12-22T17:29:03.155Z,1.42
2022-12-22T17:31:31.297Z,1.25
2022-12-22T17:34:00.703Z,1.30
2022-12-22T17:36:34.781Z,1.42
2022-12-22T17:39:03.856Z,1.30
2022-12-22T17:41:32.191Z,1.13
2022-12-22T17:44:01.096Z,1.33
2022-12-22T17:46:29.223Z,1.30
2022-12-22T17:48:57.341Z,1.17
2022-12-22T17:51:30.169Z,1.58
2022-12-22T17:53:59.379Z,1.30
2022-12-22T17:56:28.446Z,1.23
2022-12-22T17:58:56.469Z,1.30
2022-12-22T18:01:27.787Z,1.40
2022-12-22T18:03:57.030Z,1.50
2022-12-22T18:06:30.703Z,1.30
2022-12-22T18:08:59.071Z,1.50
2022-12-22T18:11:27.580Z,1.30
2022-12-22T18:13:57.274Z,1.75
2022-12-22T18:16:25.638Z,1.50
2022-12-22T18:18:53.878Z,1.50
2022-12-22T18:21:23.873Z,1.65
2022-12-22T18:23:53.409Z,1.40
2022-12-22T18:26:24.186Z,1.58
2022-12-22T18:28:52.641Z,1.63
2022-12-22T18:31:21.230Z,1.80
2022-12-22T18:33:49.472Z,1.85
2022-12-22T18:36:19.848Z,1.63
2022-12-22T18:38:48.781Z,1.92
2022-12-22T18:41:22.308Z,1.85
2022-12-22T18:43:51.252Z,1.75
2022-12-22T18:46:20.219Z,2.10
2022-12-22T18:48:48.307Z,1.98
2022-12-22T18:51:22.110Z,1.83
2022-12-22T18:53:51.057Z,1.85
2022-12-22T18:56:20.682Z,1.70
2022-12-22T18:58:48.893Z,1.90
2022-12-22T19:01:23.187Z,2.22
2022-12-22T19:03:53.418Z,1.75
2022-12-22T19:06:23.331Z,2.00
2022-12-22T19:08:52.301Z,1.85
2022-12-22T19:11:26.761Z,1.70
2022-12-22T19:13:54.888Z,2.20
2022-12-22T19:16:27.746Z,1.63
2022-12-22T19:18:57.141Z,1.70
2022-12-22T19:21:25.233Z,2.03
2022-12-22T19:23:53.342Z,2.08
2022-12-22T19:26:24.580Z,1.60
2022-12-22T19:28:55.314Z,1.70
2022-12-22T19:31:25.837Z,1.70
2022-12-22T19:33:54.452Z,1.70
2022-12-22T19:36:25.772Z,1.65
2022-12-22T19:39:02.631Z,1.70
2022-12-22T19:41:39.497Z,1.75
2022-12-22T19:44:17.149Z,1.95
2022-12-22T19:46:45.719Z,2.03
2022-12-22T19:49:16.586Z,1.65
2022-12-22T19:51:44.679Z,1.80
2022-12-22T19:54:12.730Z,1.90
2022-12-22T19:56:43.402Z,1.83
2022-12-22T19:59:27.068Z,2.20
2022-12-22T20:01:58.541Z,1.88
2022-12-22T20:04:26.925Z,1.55
2022-12-22T20:06:55.010Z,1.55
2022-12-22T20:09:22.879Z,1.88
2022-12-22T20:11:52.366Z,1.85
2022-12-22T20:14:20.864Z,1.67
2022-12-22T20:16:48.925Z,1.50
2022-12-22T20:19:17.552Z,1.88
2022-12-22T20:21:45.898Z,1.80
2022-12-22T20:24:21.831Z,1.52
2022-12-22T20:26:54.161Z,1.70
2022-12-22T20:29:25.876Z,1.52
2022-12-22T20:31:54.132Z,1.70
2022-12-22T20:34:22.421Z,2.15
2022-12-22T20:36:50.462Z,1.85
2022-12-22T20:39:20.475Z,1.63
2022-12-22T20:41:52.930Z,1.40
2022-12-22T20:46:52.675Z,1.50
2022-12-22T20:49:20.681Z,1.73
2022-12-22T20:51:48.804Z,1.65
2022-12-22T20:54:17.054Z,1.90
2022-12-22T20:56:45.933Z,1.90
2022-12-22T20:59:16.627Z,1.75
2022-12-22T21:01:46.701Z,1.83
2022-12-22T21:04:15.199Z,1.48
2022-12-22T21:06:47.629Z,1.85
2022-12-22T21:09:16.207Z,1.52
2022-12-22T21:11:44.479Z,1.60
2022-12-22T21:14:13.756Z,1.83
2022-12-22T21:16:42.536Z,1.83
2022-12-22T21:19:18.219Z,1.92
2022-12-22T21:21:46.612Z,1.67
2022-12-22T21:24:14.591Z,1.80
2022-12-22T21:26:48.251Z,1.50
2022-12-22T21:29:21.427Z,1.67
2022-12-22T21:31:49.504Z,1.80
2022-12-22T21:34:18.907Z,1.90
2022-12-22T21:36:49.831Z,1.60
2022-12-22T21:39:26.390Z,2.13
2022-12-22T21:42:04.567Z,1.88
2022-12-22T21:44:34.745Z,1.90
2022-12-22T21:47:03.520Z,1.77
2022-12-22T21:49:34.387Z,2.00
2022-12-22T21:52:02.355Z,1.73
2022-12-22T21:54:30.275Z,1.42
2022-12-22T21:56:58.347Z,1.55
2022-12-22T21:59:26.525Z,1.80
2022-12-22T22:01:56.241Z,1.70
2022-12-22T22:04:24.543Z,1.88
2022-12-22T22:06:54.153Z,1.50
2022-12-22T22:09:22.089Z,1.65
2022-12-22T22:12:07.417Z,1.60
2022-12-22T22:14:35.429Z,1.60
2022-12-22T22:17:03.371Z,1.80
2022-12-22T22:19:31.310Z,1.52
2022-12-22T22:22:00.621Z,1.50
2022-12-22T22:24:28.923Z,1.90
2022-12-22T22:26:56.915Z,1.75
2022-12-22T22:29:24.952Z,1.60
2022-12-22T22:31:52.893Z,1.42
2022-12-22T22:34:20.924Z,1.73
2022-12-22T22:36:48.816Z,1.50
2022-12-22T22:39:18.254Z,1.50
2022-12-22T22:41:46.270Z,2.88
2022-12-22T22:44:14.669Z,1.40
2022-12-22T22:46:42.772Z,1.67
2022-12-22T22:49:10.810Z,1.95
2022-12-22T22:51:38.785Z,1.63
2022-12-22T22:54:06.847Z,1.50
2022-12-22T22:56:38.856Z,1.60
2022-12-22T22:59:07.060Z,1.85
2022-12-22T23:01:35.075Z,1.35
2022-12-22T23:04:03.300Z,1.20
2022-12-22T23:06:31.441Z,1.48
2022-12-22T23:08:59.660Z,1.50
2022-12-22T23:11:27.671Z,1.58
2022-12-22T23:13:57.230Z,1.60
2022-12-22T23:16:25.280Z,1.52
2022-12-22T23:18:54.354Z,1.30
2022-12-22T23:21:24.029Z,1.75
2022-12-22T23:23:56.384Z,1.38
2022-12-22T23:26:25.313Z,1.50
2022-12-22T23:28:57.723Z,1.55
2022-12-22T23:31:31.015Z,1.27
2022-12-22T23:33:59.275Z,1.65
2022-12-22T23:36:27.473Z,1.85
2022-12-22T23:38:55.419Z,1.73
2022-12-22T23:41:23.492Z,1.73
2022-12-22T23:43:51.978Z,1.77
2022-12-22T23:46:20.150Z,2.45
2022-12-22T23:48:53.441Z,1.88
2022-12-22T23:51:23.077Z,2.00
2022-12-22T23:53:51.052Z,1.58
2022-12-22T23:56:19.115Z,1.83
2022-12-22T23:58:51.099Z,2.15
